createdAt,value
2023-06-05T00:02:00.980Z,2.87
2023-06-05T00:04:31.119Z,2.28
2023-06-05T00:06:58.302Z,3.05
2023-06-05T00:09:24.901Z,2.88
2023-06-05T00:11:51.587Z,2.53
2023-06-05T00:14:18.251Z,3.07
2023-06-05T00:16:44.976Z,2.38
2023-06-05T00:19:12.218Z,2.72
2023-06-05T00:21:38.835Z,2.92
2023-06-05T00:24:05.774Z,2.08
2023-06-05T00:26:32.415Z,2.97
2023-06-05T00:28:59.069Z,3.15
2023-06-05T00:31:26.033Z,2.60
2023-06-05T00:33:52.937Z,3.03
2023-06-05T00:36:23.531Z,2.75
2023-06-05T00:38:51.425Z,3.07
2023-06-05T00:41:18.232Z,2.72
2023-06-05T00:43:45.289Z,3.75
2023-06-05T00:46:12.480Z,3.35
2023-06-05T00:48:40.137Z,3.10
2023-06-05T00:51:08.183Z,3.17
2023-06-05T00:53:36.661Z,2.65
2023-06-05T00:56:03.972Z,3.20
2023-06-05T00:58:32.625Z,3.95
2023-06-05T01:00:59.512Z,4.22
2023-06-05T01:03:30.545Z,3.63
2023-06-05T01:06:04.340Z,2.95
2023-06-05T01:08:40.030Z,3.70
2023-06-05T01:11:16.079Z,3.28
2023-06-05T01:13:49.618Z,3.78
2023-06-05T01:16:16.382Z,2.63
2023-06-05T01:18:47.157Z,3.58
2023-06-05T01:21:14.727Z,3.10
2023-06-05T01:23:45.601Z,3.60
2023-06-05T01:26:22.455Z,3.63
2023-06-05T01:28:51.327Z,3.57
2023-06-05T01:31:21.932Z,3.97
2023-06-05T01:33:58.085Z,3.55
2023-06-05T01:36:25.154Z,3.65
2023-06-05T01:38:54.155Z,3.28
2023-06-05T01:41:21.562Z,4.03
2023-06-05T01:43:49.284Z,2.95
2023-06-05T01:46:19.492Z,4.07
2023-06-05T01:48:46.591Z,3.50
2023-06-05T01:51:13.509Z,3.38
2023-06-05T01:53:40.394Z,3.80
2023-06-05T01:56:09.346Z,4.00
2023-06-05T01:58:36.900Z,3.45
2023-06-05T02:01:04.443Z,2.90
2023-06-05T02:03:31.637Z,3.35
2023-06-05T02:05:58.341Z,4.37
2023-06-05T02:08:26.194Z,3.80
2023-06-05T02:10:53.817Z,3.65
2023-06-05T02:13:20.898Z,2.70
2023-06-05T02:15:47.875Z,3.22
2023-06-05T02:18:14.461Z,3.07
2023-06-05T02:20:42.626Z,2.88
2023-06-05T02:23:09.495Z,2.70
2023-06-05T02:25:36.183Z,3.13
2023-06-05T02:28:03.068Z,4.10
2023-06-05T02:30:29.678Z,3.37
2023-06-05T02:33:01.900Z,2.97
2023-06-05T02:35:30.425Z,3.42
2023-06-05T02:37:57.848Z,2.67
2023-06-05T02:40:24.675Z,3.35
2023-06-05T02:42:51.731Z,3.07
2023-06-05T02:45:18.591Z,4.25
2023-06-05T02:47:45.260Z,2.72
2023-06-05T02:50:12.734Z,2.55
2023-06-05T02:52:40.908Z,3.75
2023-06-05T02:55:09.061Z,2.80
2023-06-05T02:57:42.847Z,3.70
2023-06-05T03:00:11.246Z,2.90
2023-06-05T03:02:38.758Z,3.22
2023-06-05T03:05:05.954Z,3.63
2023-06-05T03:07:35.198Z,2.47
2023-06-05T03:10:02.670Z,3.13
2023-06-05T03:12:29.216Z,2.83
2023-06-05T03:14:55.818Z,2.90
2023-06-05T03:17:24.437Z,2.55
2023-06-05T03:19:52.119Z,2.37
2023-06-05T03:22:19.263Z,2.53
2023-06-05T03:24:46.695Z,2.35
2023-06-05T03:27:13.839Z,2.33
2023-06-05T03:29:40.743Z,2.70
2023-06-05T03:32:07.371Z,2.53
2023-06-05T03:34:37.494Z,2.30
2023-06-05T03:37:05.012Z,2.47
2023-06-05T03:39:32.111Z,2.70
2023-06-05T03:41:58.714Z,2.70
2023-06-05T03:44:25.525Z,2.90
2023-06-05T03:46:52.269Z,2.90
2023-06-05T03:49:19.214Z,2.88
2023-06-05T03:51:46.841Z,3.28
2023-06-05T03:54:14.250Z,2.00
2023-06-05T03:56:44.466Z,4.07
2023-06-05T03:59:19.848Z,2.30
2023-06-05T04:01:47.092Z,2.92
2023-06-05T04:04:13.868Z,3.65
2023-06-05T04:06:41.594Z,2.47
2023-06-05T04:09:13.432Z,2.80
2023-06-05T04:11:44.866Z,3.45
2023-06-05T04:14:12.302Z,2.47
2023-06-05T04:16:40.045Z,3.25
2023-06-05T04:19:07.924Z,3.28
2023-06-05T04:21:37.282Z,3.33
2023-06-05T04:24:12.160Z,2.85
2023-06-05T04:26:42.500Z,2.78
2023-06-05T04:29:16.891Z,3.97
2023-06-05T04:31:46.130Z,3.88
2023-06-05T04:34:13.563Z,3.67
2023-06-05T04:36:42.153Z,3.17
2023-06-05T04:39:15.427Z,2.60
2023-06-05T04:41:46.448Z,2.88
2023-06-05T04:44:15.045Z,4.03
2023-06-05T04:46:44.306Z,4.33
2023-06-05T04:49:11.968Z,3.92
2023-06-05T04:51:38.555Z,3.63
2023-06-05T04:54:06.342Z,3.67
2023-06-05T04:56:35.486Z,4.22
2023-06-05T04:59:03.776Z,3.77
2023-06-05T05:01:31.112Z,4.47
2023-06-05T05:03:57.960Z,3.03
2023-06-05T05:06:25.442Z,4.32
2023-06-05T05:08:52.229Z,4.00
2023-06-05T05:11:18.858Z,4.00
2023-06-05T05:13:45.677Z,4.15
2023-06-05T05:16:12.336Z,3.83
2023-06-05T05:18:44.496Z,3.47
2023-06-05T05:21:11.585Z,3.10
2023-06-05T05:23:38.319Z,3.27
2023-06-05T05:26:06.108Z,3.13
2023-06-05T05:28:32.903Z,3.30
2023-06-05T05:31:00.189Z,3.15
2023-06-05T05:33:26.979Z,3.47
2023-06-05T05:35:53.736Z,3.73
2023-06-05T05:38:22.625Z,2.80
2023-06-05T05:40:50.801Z,2.90
2023-06-05T05:43:21.858Z,3.67
2023-06-05T05:45:48.756Z,3.70
2023-06-05T05:48:15.549Z,3.33
2023-06-05T05:50:42.582Z,2.92
2023-06-05T05:53:09.275Z,3.00
2023-06-05T05:55:35.850Z,2.50
2023-06-05T05:58:02.479Z,2.65
2023-06-05T06:00:31.563Z,2.97
2023-06-05T06:02:58.465Z,2.42
2023-06-05T06:05:25.634Z,3.30
2023-06-05T06:07:52.329Z,2.20
2023-06-05T06:10:19.182Z,2.33
2023-06-05T06:12:46.494Z,2.77
2023-06-05T06:15:13.136Z,2.53
2023-06-05T06:17:39.882Z,2.45
2023-06-05T06:20:14.386Z,2.90
2023-06-05T06:22:41.951Z,2.45
2023-06-05T06:25:11.713Z,2.47
2023-06-05T06:27:38.515Z,2.00
2023-06-05T06:30:06.694Z,2.42
2023-06-05T06:32:33.447Z,1.60
2023-06-05T06:35:01.040Z,2.63
2023-06-05T06:37:28.043Z,1.97
2023-06-05T06:39:55.003Z,2.13
2023-06-05T06:42:21.799Z,2.42
2023-06-05T06:44:51.985Z,1.92
2023-06-05T06:47:18.657Z,2.05
2023-06-05T06:49:45.363Z,2.10
2023-06-05T06:52:22.653Z,2.60
2023-06-05T06:54:51.388Z,2.65
2023-06-05T06:57:18.103Z,1.80
2023-06-05T06:59:46.070Z,2.25
2023-06-05T07:02:18.575Z,2.70
2023-06-05T07:04:45.845Z,1.95
2023-06-05T07:07:17.059Z,2.03
2023-06-05T07:09:47.676Z,2.08
2023-06-05T07:12:20.529Z,2.15
2023-06-05T07:14:48.012Z,2.30
2023-06-05T07:17:15.607Z,2.30
2023-06-05T07:19:42.430Z,1.90
2023-06-05T07:22:09.376Z,1.88
2023-06-05T07:24:42.891Z,2.38
2023-06-05T07:27:09.747Z,2.20
2023-06-05T07:29:37.095Z,1.55
2023-06-05T07:32:07.536Z,1.90
2023-06-05T07:34:35.876Z,2.10
2023-06-05T07:37:03.050Z,2.22
2023-06-05T07:39:29.836Z,2.50
2023-06-05T07:41:57.069Z,2.10
2023-06-05T07:44:23.880Z,1.88
2023-06-05T07:46:53.221Z,2.53
2023-06-05T07:49:20.091Z,2.70
2023-06-05T07:51:48.964Z,2.63
2023-06-05T07:54:20.298Z,2.60
2023-06-05T07:56:53.737Z,2.45
2023-06-05T07:59:25.434Z,2.95
2023-06-05T08:01:57.793Z,2.40
2023-06-05T08:04:26.474Z,3.07
2023-06-05T08:06:53.368Z,2.55
2023-06-05T08:09:20.234Z,2.50
2023-06-05T08:11:47.183Z,2.28
2023-06-05T08:14:13.790Z,2.83
2023-06-05T08:16:40.773Z,3.10
2023-06-05T08:19:07.837Z,2.78
2023-06-05T08:21:35.438Z,2.80
2023-06-05T08:24:02.351Z,2.65
2023-06-05T08:26:29.139Z,2.70
2023-06-05T08:28:59.258Z,2.77
2023-06-05T08:31:26.413Z,2.33
2023-06-05T08:33:53.182Z,2.13
2023-06-05T08:36:22.876Z,2.55
2023-06-05T08:38:49.645Z,2.40
2023-06-05T08:41:17.597Z,2.70
2023-06-05T08:43:51.350Z,3.03
2023-06-05T08:46:21.465Z,2.17
2023-06-05T08:48:57.788Z,2.80
2023-06-05T08:51:24.669Z,2.30
2023-06-05T08:54:20.773Z,3.23
2023-06-05T08:56:47.581Z,3.17
2023-06-05T08:59:16.249Z,2.90
2023-06-05T09:01:45.059Z,2.38
2023-06-05T09:04:12.544Z,2.85
2023-06-05T09:06:40.828Z,2.70
2023-06-05T09:09:08.779Z,3.00
2023-06-05T09:11:35.628Z,3.25
2023-06-05T09:14:03.494Z,2.70
2023-06-05T09:16:38.986Z,2.65
2023-06-05T09:19:06.666Z,3.67
2023-06-05T09:21:34.973Z,2.53
2023-06-05T09:24:10.882Z,2.72
2023-06-05T09:26:59.632Z,3.22
2023-06-05T09:29:28.481Z,2.90
2023-06-05T09:31:58.177Z,2.93
2023-06-05T09:34:27.306Z,2.90
2023-06-05T09:36:56.163Z,3.00
2023-06-05T09:39:23.498Z,2.80
2023-06-05T09:41:52.386Z,3.25
2023-06-05T09:44:20.590Z,3.33
2023-06-05T09:46:59.559Z,3.38
2023-06-05T09:49:32.242Z,2.85
2023-06-05T09:52:03.076Z,3.20
2023-06-05T09:54:31.321Z,2.90
2023-06-05T09:57:00.633Z,2.90
2023-06-05T09:59:32.629Z,3.53
2023-06-05T10:02:07.208Z,3.00
2023-06-05T10:04:47.308Z,3.58
2023-06-05T10:07:14.269Z,2.90
2023-06-05T10:09:42.851Z,3.83
2023-06-05T10:12:12.961Z,3.25
2023-06-05T10:14:42.913Z,2.67
2023-06-05T10:17:11.617Z,3.08
2023-06-05T10:19:43.008Z,3.25
2023-06-05T10:22:12.914Z,3.53
2023-06-05T10:24:45.269Z,3.45
2023-06-05T10:27:48.004Z,3.80
2023-06-05T10:30:33.871Z,2.88
2023-06-05T10:33:24.063Z,3.13
2023-06-05T10:36:20.744Z,3.10
2023-06-05T10:38:47.915Z,3.38
2023-06-05T10:41:15.008Z,3.45
2023-06-05T10:43:53.261Z,3.25
2023-06-05T10:46:32.588Z,3.42
2023-06-05T10:49:21.381Z,2.80
2023-06-05T10:51:50.282Z,3.28
2023-06-05T10:54:39.727Z,3.60
2023-06-05T10:57:08.389Z,3.70
2023-06-05T10:59:37.209Z,3.78
2023-06-05T11:02:07.376Z,3.23
2023-06-05T11:05:00.324Z,3.72
2023-06-05T11:07:35.006Z,2.72
2023-06-05T11:10:07.508Z,3.08
2023-06-05T11:12:40.185Z,3.05
2023-06-05T11:15:09.218Z,3.17
2023-06-05T11:17:37.705Z,3.35
2023-06-05T11:20:32.213Z,3.75
2023-06-05T11:22:58.858Z,3.42
2023-06-05T11:25:30.516Z,3.28
2023-06-05T11:28:03.078Z,2.77
2023-06-05T11:30:44.926Z,2.90
2023-06-05T11:33:16.999Z,3.53
2023-06-05T11:35:51.943Z,3.25
2023-06-05T11:38:25.843Z,3.33
2023-06-05T11:40:53.487Z,3.63
2023-06-05T11:43:21.471Z,3.42
2023-06-05T11:46:06.289Z,3.67
2023-06-05T11:48:32.981Z,3.67
2023-06-05T11:51:02.213Z,3.63
2023-06-05T11:53:30.421Z,3.33
2023-06-05T11:56:04.365Z,3.13
2023-06-05T11:58:32.762Z,2.88
2023-06-05T12:01:08.832Z,3.42
2023-06-05T12:03:37.180Z,3.30
2023-06-05T12:06:04.562Z,3.30
2023-06-05T12:08:36.111Z,3.38
2023-06-05T12:11:19.981Z,3.08
2023-06-05T12:13:54.711Z,3.58
2023-06-05T12:16:34.412Z,3.63
2023-06-05T12:19:14.882Z,2.83
2023-06-05T12:21:43.778Z,3.50
2023-06-05T12:24:10.820Z,2.95
2023-06-05T12:26:57.378Z,2.72
2023-06-05T12:29:30.794Z,3.00
2023-06-05T12:31:59.643Z,3.30
2023-06-05T12:37:40.316Z,3.00
2023-06-05T12:40:13.645Z,2.50
2023-06-05T12:42:45.874Z,2.88
2023-06-05T12:45:18.578Z,2.77
2023-06-05T12:47:47.224Z,3.17
2023-06-05T12:50:18.733Z,2.47
2023-06-05T12:52:46.117Z,2.80
2023-06-05T12:55:15.863Z,2.80
2023-06-05T12:57:46.271Z,3.00
2023-06-05T13:00:14.680Z,2.72
2023-06-05T13:02:46.826Z,2.45
2023-06-05T13:05:15.067Z,3.03
2023-06-05T13:07:42.942Z,2.33
2023-06-05T13:10:18.999Z,2.67
2023-06-05T13:12:45.930Z,2.67
2023-06-05T13:15:14.466Z,3.63
2023-06-05T13:17:44.693Z,2.83
2023-06-05T13:20:12.520Z,2.05
2023-06-05T13:22:48.896Z,2.70
2023-06-05T13:25:15.570Z,2.67
2023-06-05T13:27:42.820Z,2.65
2023-06-05T13:30:10.026Z,2.33
2023-06-05T13:32:40.388Z,2.53
2023-06-05T13:35:09.240Z,2.90
2023-06-05T13:37:36.638Z,2.15
2023-06-05T13:40:10.168Z,2.40
2023-06-05T13:42:36.949Z,2.28
2023-06-05T13:45:04.523Z,2.35
2023-06-05T13:47:31.724Z,1.90
2023-06-05T13:49:59.166Z,2.30
2023-06-05T13:52:26.015Z,2.72
2023-06-05T13:54:52.659Z,2.47
2023-06-05T13:57:21.688Z,2.17
2023-06-05T13:59:48.348Z,2.23
2023-06-05T14:02:18.701Z,2.70
2023-06-05T14:04:45.687Z,2.25
2023-06-05T14:07:12.368Z,2.42
2023-06-05T14:09:39.104Z,1.60
2023-06-05T14:12:06.088Z,2.07
2023-06-05T14:14:33.026Z,2.53
2023-06-05T14:17:05.152Z,1.98
2023-06-05T14:19:37.054Z,1.98
2023-06-05T14:22:03.766Z,2.10
2023-06-05T14:24:30.547Z,2.20
2023-06-05T14:26:57.147Z,2.47
2023-06-05T14:29:23.695Z,2.25
2023-06-05T14:31:50.448Z,2.47
2023-06-05T14:34:17.147Z,2.00
2023-06-05T14:36:52.639Z,2.73
2023-06-05T14:39:21.566Z,2.17
2023-06-05T14:41:48.215Z,1.95
2023-06-05T14:46:48.339Z,2.50
2023-06-05T14:49:22.846Z,2.10
2023-06-05T14:51:49.462Z,2.13
2023-06-05T14:54:16.325Z,1.95
2023-06-05T14:56:47.540Z,2.53
2023-06-05T15:01:50.651Z,2.20
2023-06-05T15:04:19.722Z,2.20
2023-06-05T15:06:54.576Z,2.15
2023-06-05T15:09:23.021Z,2.15
2023-06-05T15:11:51.299Z,2.30
2023-06-05T15:14:18.736Z,2.07
2023-06-05T15:16:47.669Z,2.50
2023-06-05T15:19:14.566Z,2.05
2023-06-05T15:21:43.440Z,2.30
2023-06-05T15:24:10.395Z,2.33
2023-06-05T15:26:37.393Z,2.60
2023-06-05T15:29:04.065Z,2.30
2023-06-05T15:31:31.984Z,2.22
2023-06-05T15:33:58.746Z,2.17
2023-06-05T15:36:27.164Z,2.10
2023-06-05T15:38:53.956Z,2.17
2023-06-05T15:41:20.666Z,2.30
2023-06-05T15:43:47.456Z,1.90
2023-06-05T15:46:14.094Z,2.40
2023-06-05T15:48:41.136Z,2.25
2023-06-05T15:51:08.121Z,2.40
2023-06-05T15:53:40.294Z,2.65
2023-06-05T15:56:18.341Z,2.38
2023-06-05T15:58:45.028Z,2.28
2023-06-05T16:01:11.712Z,2.30
2023-06-05T16:03:38.559Z,2.30
2023-06-05T16:06:05.717Z,2.63
2023-06-05T16:08:33.944Z,2.25
2023-06-05T16:11:03.303Z,2.47
2023-06-05T16:13:29.872Z,1.83
2023-06-05T16:15:56.537Z,1.80
2023-06-05T16:18:23.591Z,2.45
2023-06-05T16:20:50.278Z,2.10
2023-06-05T16:23:17.187Z,2.20
2023-06-05T16:25:43.801Z,2.03
2023-06-05T16:28:10.624Z,2.97
2023-06-05T16:30:40.093Z,2.25
2023-06-05T16:33:06.898Z,2.40
2023-06-05T16:35:33.632Z,2.17
2023-06-05T16:38:00.204Z,2.40
2023-06-05T16:40:26.910Z,2.33
2023-06-05T16:42:53.774Z,1.90
2023-06-05T16:45:20.524Z,2.10
2023-06-05T16:47:47.199Z,2.20
2023-06-05T16:50:13.939Z,2.45
2023-06-05T16:52:40.752Z,2.33
2023-06-05T16:55:07.728Z,2.38
2023-06-05T16:57:34.401Z,1.80
2023-06-05T17:00:01.628Z,2.08
2023-06-05T17:02:28.253Z,2.30
2023-06-05T17:04:55.184Z,1.60
2023-06-05T17:07:28.097Z,2.58
2023-06-05T17:09:54.871Z,2.00
2023-06-05T17:12:21.466Z,2.33
2023-06-05T17:14:48.007Z,2.42
2023-06-05T17:17:14.747Z,1.90
2023-06-05T17:19:41.762Z,2.05
2023-06-05T17:22:08.333Z,2.28
2023-06-05T17:24:34.899Z,1.90
2023-06-05T17:27:04.491Z,2.45
2023-06-05T17:29:32.034Z,2.20
2023-06-05T17:31:59.870Z,2.00
2023-06-05T17:34:30.015Z,2.13
2023-06-05T17:36:56.699Z,1.95
2023-06-05T17:39:23.422Z,2.20
2023-06-05T17:41:50.158Z,2.10
2023-06-05T17:44:17.249Z,2.67
2023-06-05T17:46:44.075Z,2.58
2023-06-05T17:49:11.488Z,1.90
2023-06-05T17:51:38.269Z,2.85
2023-06-05T17:54:05.399Z,2.07
2023-06-05T17:56:32.212Z,2.92
2023-06-05T17:59:01.205Z,2.20
2023-06-05T18:01:28.175Z,2.30
2023-06-05T18:03:54.961Z,2.53
2023-06-05T18:06:24.536Z,2.10
2023-06-05T18:08:51.345Z,2.38
2023-06-05T18:11:18.122Z,2.25
2023-06-05T18:13:44.880Z,2.38
2023-06-05T18:16:11.748Z,2.42
2023-06-05T18:18:38.889Z,1.70
2023-06-05T18:21:12.167Z,1.90
2023-06-05T18:23:42.762Z,2.13
2023-06-05T18:26:11.245Z,2.45
2023-06-05T18:28:40.484Z,2.40
2023-06-05T18:31:08.457Z,3.33
2023-06-05T18:33:35.521Z,2.45
2023-06-05T18:36:02.237Z,2.05
2023-06-05T18:38:28.838Z,2.13
2023-06-05T18:40:55.457Z,2.22
2023-06-05T18:43:22.520Z,1.87
2023-06-05T18:45:49.136Z,2.05
2023-06-05T18:48:16.168Z,2.38
2023-06-05T18:50:42.961Z,2.65
2023-06-05T18:53:09.747Z,1.85
2023-06-05T18:55:36.321Z,2.73
2023-06-05T18:58:02.984Z,2.28
2023-06-05T19:00:29.640Z,2.13
2023-06-05T19:02:56.282Z,2.22
2023-06-05T19:05:23.021Z,2.42
2023-06-05T19:07:52.873Z,2.53
2023-06-05T19:10:19.492Z,2.80
2023-06-05T19:12:46.106Z,2.90
2023-06-05T19:15:13.178Z,2.40
2023-06-05T19:17:42.602Z,3.15
2023-06-05T19:20:09.312Z,1.97
2023-06-05T19:22:35.835Z,2.05
2023-06-05T19:25:02.587Z,2.83
2023-06-05T19:27:29.345Z,2.17
2023-06-05T19:29:56.385Z,2.47
2023-06-05T19:32:23.150Z,3.53
2023-06-05T19:34:49.852Z,2.50
2023-06-05T19:37:16.670Z,2.90
2023-06-05T19:39:43.301Z,3.28
2023-06-05T19:42:10.462Z,2.77
2023-06-05T19:44:37.209Z,2.42
2023-06-05T19:47:04.148Z,2.10
2023-06-05T19:49:30.834Z,2.97
2023-06-05T19:51:57.543Z,2.30
2023-06-05T19:54:24.276Z,2.10
2023-06-05T19:56:51.556Z,2.45
2023-06-05T19:59:18.122Z,2.28
2023-06-05T20:01:44.887Z,2.40
2023-06-05T20:04:11.733Z,2.53
2023-06-05T20:06:38.425Z,3.00
2023-06-05T20:09:05.167Z,2.35
2023-06-05T20:11:31.899Z,2.78
2023-06-05T20:13:58.941Z,1.98
2023-06-05T20:16:25.632Z,2.33
2023-06-05T20:18:53.379Z,3.30
2023-06-05T20:21:19.989Z,2.75
2023-06-05T20:23:49.128Z,2.90
2023-06-05T20:26:17.773Z,2.50
2023-06-05T20:28:44.938Z,3.03
2023-06-05T20:31:11.983Z,1.80
2023-06-05T20:33:38.892Z,2.30
2023-06-05T20:36:11.198Z,2.72
2023-06-05T20:38:39.408Z,2.70
2023-06-05T20:41:09.347Z,2.17
2023-06-05T20:43:36.899Z,2.33
2023-06-05T20:46:07.674Z,2.28
2023-06-05T20:48:34.934Z,3.03
2023-06-05T20:51:01.845Z,2.85
2023-06-05T20:53:29.735Z,2.88
2023-06-05T20:55:56.611Z,2.10
2023-06-05T20:58:23.901Z,2.58
2023-06-05T21:00:51.270Z,2.67
2023-06-05T21:03:18.184Z,2.72
2023-06-05T21:05:44.970Z,3.15
2023-06-05T21:08:11.538Z,3.33
2023-06-05T21:10:38.816Z,2.90
2023-06-05T21:13:05.443Z,2.33
2023-06-05T21:15:32.071Z,2.38
2023-06-05T21:17:58.748Z,2.53
2023-06-05T21:20:25.587Z,3.37
2023-06-05T21:22:52.123Z,3.22
2023-06-05T21:25:19.205Z,2.92
2023-06-05T21:27:45.839Z,3.40
2023-06-05T21:30:12.926Z,2.78
2023-06-05T21:32:39.679Z,2.90
2023-06-05T21:35:06.498Z,3.05
2023-06-05T21:37:33.097Z,4.45
2023-06-05T21:39:59.953Z,2.92
2023-06-05T21:42:26.535Z,3.10
2023-06-05T21:44:53.112Z,3.17
2023-06-05T21:47:20.231Z,3.38
2023-06-05T21:49:46.797Z,3.42
2023-06-05T21:52:13.857Z,3.53
2023-06-05T21:54:43.751Z,2.65
2023-06-05T21:57:11.802Z,3.27
2023-06-05T21:59:39.715Z,2.78
2023-06-05T22:02:08.214Z,3.05
2023-06-05T22:04:35.310Z,2.63
2023-06-05T22:07:03.064Z,3.75
2023-06-05T22:09:29.684Z,2.80
2023-06-05T22:11:56.230Z,3.50
2023-06-05T22:14:22.961Z,3.15
2023-06-05T22:16:51.514Z,3.38
2023-06-05T22:19:21.522Z,3.08
2023-06-05T22:21:49.333Z,2.73
2023-06-05T22:24:20.217Z,3.13
2023-06-05T22:26:49.002Z,2.97
2023-06-05T22:29:16.282Z,2.65
2023-06-05T22:31:42.991Z,3.00
2023-06-05T22:34:09.812Z,3.67
2023-06-05T22:36:36.331Z,2.92
2023-06-05T22:39:03.098Z,2.35
2023-06-05T22:41:31.086Z,3.33
2023-06-05T22:43:57.614Z,2.67
2023-06-05T22:46:24.197Z,3.30
2023-06-05T22:48:51.058Z,2.90
2023-06-05T22:51:20.476Z,3.42
2023-06-05T22:53:47.443Z,3.47
2023-06-05T22:56:14.831Z,3.05
2023-06-05T22:58:42.479Z,3.17
2023-06-05T23:01:10.066Z,4.03
2023-06-05T23:03:37.478Z,3.38
2023-06-05T23:06:04.209Z,3.58
2023-06-05T23:08:31.486Z,3.55
2023-06-05T23:10:58.503Z,3.27
2023-06-05T23:13:28.001Z,3.33
2023-06-05T23:15:55.556Z,3.85
2023-06-05T23:18:23.047Z,2.63
2023-06-05T23:20:49.716Z,3.00
2023-06-05T23:23:16.602Z,3.30
2023-06-05T23:25:43.273Z,3.25
2023-06-05T23:28:11.843Z,3.50
2023-06-05T23:30:39.584Z,2.92
2023-06-05T23:33:07.188Z,4.05
2023-06-05T23:35:34.099Z,3.47
2023-06-05T23:38:01.245Z,3.70
2023-06-05T23:40:29.181Z,3.58
2023-06-05T23:42:59.548Z,2.70
2023-06-05T23:45:33.737Z,3.83
2023-06-05T23:48:01.689Z,3.37
2023-06-05T23:50:28.701Z,3.10
2023-06-05T23:52:56.656Z,4.00
2023-06-05T23:55:24.589Z,3.75
2023-06-05T23:57:57.519Z,3.38
